createdAt,value
2018-03-06T00:02:23.997Z,5.10
2018-03-06T00:04:51.038Z,5.10
2018-03-06T00:07:18.728Z,5.20
2018-03-06T00:09:45.691Z,5.20
2018-03-06T00:12:12.736Z,5.10
2018-03-06T00:14:40.397Z,5.20
2018-03-06T00:17:07.410Z,5.20
2018-03-06T00:19:34.386Z,5.30
2018-03-06T00:22:02.018Z,5.30
2018-03-06T00:24:29.793Z,5.30
2018-03-06T00:26:57.579Z,5.30
2018-03-06T00:29:25.280Z,5.20
2018-03-06T00:31:52.334Z,5.20
2018-03-06T00:34:19.297Z,5.00
2018-03-06T00:36:46.328Z,4.90
2018-03-06T00:39:13.296Z,5.00
2018-03-06T00:41:40.304Z,4.90
2018-03-06T00:44:07.394Z,4.80
2018-03-06T00:46:34.523Z,4.80
2018-03-06T00:49:01.486Z,4.80
2018-03-06T00:51:28.380Z,4.80
2018-03-06T00:53:55.467Z,4.70
2018-03-06T00:56:25.356Z,4.80
2018-03-06T00:58:52.666Z,4.70
2018-03-06T01:01:19.829Z,4.60
2018-03-06T01:03:46.856Z,4.40
2018-03-06T01:06:13.768Z,4.50
2018-03-06T01:08:40.883Z,4.50
2018-03-06T01:11:07.818Z,4.50
2018-03-06T01:13:34.889Z,4.60
2018-03-06T01:16:01.847Z,4.80
2018-03-06T01:18:28.921Z,4.90
2018-03-06T01:20:55.851Z,4.90
2018-03-06T01:23:22.878Z,4.90
2018-03-06T01:25:49.872Z,4.70
2018-03-06T01:28:16.873Z,4.60
2018-03-06T01:30:43.938Z,4.50
2018-03-06T01:33:10.895Z,4.40
2018-03-06T01:35:37.879Z,4.30
2018-03-06T01:38:04.884Z,4.30
2018-03-06T01:40:32.002Z,4.30
2018-03-06T01:42:59.007Z,4.20
2018-03-06T01:45:26.148Z,4.20
2018-03-06T01:48:00.461Z,4.10
2018-03-06T01:50:27.579Z,3.90
2018-03-06T01:52:54.671Z,3.90
2018-03-06T01:55:21.685Z,4.00
2018-03-06T01:57:49.490Z,4.10
2018-03-06T02:00:16.707Z,4.10
2018-03-06T02:02:43.807Z,4.10
2018-03-06T02:05:10.791Z,4.20
2018-03-06T02:07:37.738Z,4.20
2018-03-06T02:10:04.850Z,4.10
2018-03-06T02:12:35.971Z,4.10
2018-03-06T02:15:02.987Z,4.00
2018-03-06T02:17:30.038Z,3.90
2018-03-06T02:19:57.052Z,3.90
2018-03-06T02:22:24.075Z,3.90
2018-03-06T02:24:52.008Z,4.00
2018-03-06T02:27:18.920Z,4.00
2018-03-06T02:29:46.575Z,3.70
2018-03-06T02:32:14.392Z,3.70
2018-03-06T02:34:41.442Z,3.80
2018-03-06T02:37:08.497Z,3.60
2018-03-06T02:39:35.503Z,3.60
2018-03-06T02:42:02.470Z,3.50
2018-03-06T02:44:29.507Z,3.40
2018-03-06T02:46:56.516Z,3.30
2018-03-06T02:49:23.538Z,3.20
2018-03-06T02:51:50.623Z,3.10
2018-03-06T02:54:17.691Z,3.20
2018-03-06T02:56:44.667Z,3.30
2018-03-06T02:59:11.634Z,3.40
2018-03-06T03:01:38.667Z,3.40
2018-03-06T03:04:05.605Z,3.50
2018-03-06T03:06:32.710Z,3.30
2018-03-06T03:09:00.439Z,3.40
2018-03-06T03:11:27.557Z,3.40
2018-03-06T03:13:55.301Z,2.90
2018-03-06T03:16:22.407Z,2.90
2018-03-06T03:18:49.379Z,2.90
2018-03-06T03:21:16.439Z,3.00
2018-03-06T03:23:43.497Z,2.90
2018-03-06T03:26:10.523Z,2.70
2018-03-06T03:28:37.608Z,2.60
2018-03-06T03:31:04.600Z,2.50
2018-03-06T03:33:31.684Z,2.40
2018-03-06T03:35:58.858Z,2.40
2018-03-06T03:38:25.991Z,2.40
2018-03-06T03:40:53.018Z,2.20
2018-03-06T03:43:20.115Z,2.20
2018-03-06T03:45:47.124Z,2.20
2018-03-06T03:48:14.083Z,2.30
2018-03-06T03:50:41.740Z,2.30
2018-03-06T03:53:08.691Z,2.30
2018-03-06T03:55:35.669Z,2.30
2018-03-06T03:58:03.359Z,2.10
2018-03-06T04:00:30.439Z,2.10
2018-03-06T04:02:57.388Z,2.10
2018-03-06T04:05:24.358Z,2.10
2018-03-06T04:07:51.415Z,2.20
2018-03-06T04:10:19.222Z,2.30
2018-03-06T04:12:46.275Z,2.30
2018-03-06T04:15:13.338Z,2.40
2018-03-06T04:17:40.339Z,2.60
2018-03-06T04:20:07.340Z,2.70
2018-03-06T04:22:35.175Z,2.80
2018-03-06T04:25:02.305Z,2.80
2018-03-06T04:27:30.061Z,2.80
2018-03-06T04:29:57.206Z,2.70
2018-03-06T04:32:24.324Z,2.30
2018-03-06T04:34:51.294Z,1.90
2018-03-06T04:37:18.285Z,1.70
2018-03-06T04:39:45.339Z,1.70
2018-03-06T04:42:12.284Z,1.60
2018-03-06T04:44:39.283Z,1.60
2018-03-06T04:47:06.283Z,1.70
2018-03-06T04:49:33.343Z,1.80
2018-03-06T04:52:00.390Z,2.00
2018-03-06T04:54:27.390Z,2.20
2018-03-06T04:56:54.381Z,2.40
2018-03-06T04:59:21.434Z,2.50
2018-03-06T05:01:48.374Z,2.70
2018-03-06T05:04:15.415Z,2.80
2018-03-06T05:06:42.326Z,2.90
2018-03-06T05:09:10.103Z,3.00
2018-03-06T05:11:37.866Z,2.90
2018-03-06T05:14:04.944Z,2.80
2018-03-06T05:16:31.977Z,2.60
2018-03-06T05:18:58.934Z,2.70
2018-03-06T05:21:25.989Z,2.80
2018-03-06T05:23:52.985Z,2.90
2018-03-06T05:26:22.183Z,3.00
2018-03-06T05:28:57.229Z,3.10
2018-03-06T05:31:38.215Z,3.10
2018-03-06T05:34:08.864Z,3.10
2018-03-06T05:36:38.416Z,3.10
2018-03-06T05:39:18.477Z,3.00
2018-03-06T05:41:52.485Z,3.10
2018-03-06T05:44:24.687Z,3.00
2018-03-06T05:46:55.841Z,3.10
2018-03-06T05:49:28.414Z,3.20
2018-03-06T05:52:00.504Z,3.20
2018-03-06T05:54:32.418Z,3.10
2018-03-06T05:57:05.142Z,3.10
2018-03-06T05:59:38.525Z,3.10
2018-03-06T06:02:12.298Z,3.10
2018-03-06T06:04:51.741Z,3.10
2018-03-06T06:07:24.678Z,3.20
2018-03-06T06:09:57.512Z,3.10
2018-03-06T06:12:26.946Z,3.10
2018-03-06T06:14:55.893Z,3.00
2018-03-06T06:17:22.819Z,2.90
2018-03-06T06:19:49.700Z,2.90
2018-03-06T06:22:18.669Z,2.80
2018-03-06T06:24:49.025Z,2.70
2018-03-06T06:27:18.303Z,2.70
2018-03-06T06:29:47.427Z,2.80
2018-03-06T06:32:14.303Z,2.80
2018-03-06T06:34:44.194Z,3.10
2018-03-06T06:37:14.214Z,3.10
2018-03-06T06:39:43.368Z,3.30
2018-03-06T06:42:13.209Z,3.50
2018-03-06T06:44:40.072Z,3.50
2018-03-06T06:47:10.149Z,3.70
2018-03-06T06:49:39.710Z,3.70
2018-03-06T06:52:09.502Z,3.30
2018-03-06T06:54:39.124Z,2.60
2018-03-06T06:57:08.220Z,2.60
2018-03-06T06:59:37.999Z,3.10
2018-03-06T07:02:08.416Z,3.40
2018-03-06T07:04:40.869Z,3.50
2018-03-06T07:07:10.353Z,3.60
2018-03-06T07:09:39.737Z,3.20
2018-03-06T07:12:09.135Z,3.20
2018-03-06T07:14:41.902Z,3.00
2018-03-06T07:17:09.011Z,2.90
2018-03-06T07:19:39.137Z,2.70
2018-03-06T07:22:10.281Z,2.70
2018-03-06T07:24:41.920Z,2.70
2018-03-06T07:27:12.073Z,3.00
2018-03-06T07:29:41.780Z,3.00
2018-03-06T07:32:11.355Z,3.20
2018-03-06T07:34:41.031Z,3.40
2018-03-06T07:37:10.731Z,3.60
2018-03-06T07:39:37.595Z,3.60
2018-03-06T07:42:06.620Z,3.40
2018-03-06T07:44:37.308Z,4.00
2018-03-06T07:47:04.196Z,3.90
2018-03-06T07:49:31.147Z,3.20
2018-03-06T07:52:00.230Z,3.00
2018-03-06T07:54:27.112Z,3.40
2018-03-06T07:56:54.788Z,3.90
2018-03-06T07:59:21.712Z,3.90
2018-03-06T08:01:49.323Z,3.70
2018-03-06T08:04:19.565Z,3.70
2018-03-06T08:06:46.668Z,3.80
2018-03-06T08:09:13.590Z,4.50
2018-03-06T08:11:41.223Z,4.60
2018-03-06T08:14:08.157Z,4.50
2018-03-06T08:16:35.081Z,4.50
2018-03-06T08:19:02.052Z,5.30
2018-03-06T08:21:28.935Z,6.20
2018-03-06T08:23:55.974Z,6.20
2018-03-06T08:26:22.831Z,6.60
2018-03-06T08:28:50.424Z,7.70
2018-03-06T08:31:17.359Z,7.70
2018-03-06T08:33:44.284Z,8.20
2018-03-06T08:36:11.165Z,8.80
2018-03-06T08:38:38.020Z,7.90
2018-03-06T08:41:04.958Z,7.60
2018-03-06T08:43:31.819Z,8.30
2018-03-06T08:45:58.748Z,8.10
2018-03-06T08:48:25.671Z,9.10
2018-03-06T08:50:52.549Z,9.70
2018-03-06T08:53:19.484Z,9.20
2018-03-06T08:55:46.351Z,9.30
2018-03-06T08:58:13.211Z,9.50
2018-03-06T09:00:40.151Z,9.20
2018-03-06T09:03:07.104Z,8.90
2018-03-06T09:05:33.975Z,9.30
2018-03-06T09:08:01.639Z,8.30
2018-03-06T09:10:28.584Z,8.30
2018-03-06T09:12:55.534Z,9.70
2018-03-06T09:15:22.460Z,9.20
2018-03-06T09:17:49.391Z,8.70
2018-03-06T09:20:16.334Z,9.30
2018-03-06T09:22:43.224Z,9.10
2018-03-06T09:25:10.186Z,8.70
2018-03-06T09:27:37.076Z,9.10
2018-03-06T09:30:03.984Z,10.00
2018-03-06T09:32:30.943Z,10.30
2018-03-06T09:34:57.837Z,9.80
2018-03-06T09:37:24.705Z,11.40
2018-03-06T09:39:51.633Z,10.80
2018-03-06T09:42:18.523Z,11.80
2018-03-06T09:44:45.468Z,10.60
2018-03-06T09:47:12.342Z,11.20
2018-03-06T09:49:39.375Z,10.10
2018-03-06T09:52:06.247Z,9.70
2018-03-06T09:54:34.613Z,9.90
2018-03-06T09:57:01.596Z,10.20
2018-03-06T09:59:28.536Z,10.20
2018-03-06T10:01:56.169Z,10.40
2018-03-06T10:04:23.096Z,10.30
2018-03-06T10:06:50.040Z,10.30
2018-03-06T10:09:17.570Z,9.70
2018-03-06T10:11:44.538Z,10.20
2018-03-06T10:14:11.427Z,9.90
2018-03-06T10:16:38.374Z,10.00
2018-03-06T10:19:05.322Z,10.80
2018-03-06T10:21:32.196Z,10.10
2018-03-06T10:23:59.120Z,11.00
2018-03-06T10:26:27.266Z,11.10
2018-03-06T10:28:54.361Z,11.10
2018-03-06T10:31:21.935Z,11.30
2018-03-06T10:33:48.921Z,11.50
2018-03-06T10:36:15.887Z,11.30
2018-03-06T10:38:42.819Z,11.80
2018-03-06T10:41:09.742Z,12.40
2018-03-06T10:43:36.667Z,13.10
2018-03-06T10:46:03.583Z,13.50
2018-03-06T10:48:30.518Z,12.90
2018-03-06T10:50:57.451Z,12.70
2018-03-06T10:53:24.380Z,11.90
2018-03-06T10:55:51.305Z,11.80
2018-03-06T10:58:18.180Z,12.40
2018-03-06T11:00:46.987Z,12.90
2018-03-06T11:03:13.925Z,12.00
2018-03-06T11:05:40.878Z,11.30
2018-03-06T11:08:07.790Z,11.90
2018-03-06T11:10:34.670Z,12.10
2018-03-06T11:13:02.354Z,13.30
2018-03-06T11:15:29.970Z,13.90
2018-03-06T11:17:56.916Z,13.90
2018-03-06T11:20:23.784Z,14.20
2018-03-06T11:22:50.710Z,14.40
2018-03-06T11:25:17.635Z,14.50
2018-03-06T11:27:44.559Z,14.60
2018-03-06T11:30:11.422Z,14.20
2018-03-06T11:32:38.455Z,14.60
2018-03-06T11:35:05.314Z,14.70
2018-03-06T11:37:32.207Z,14.80
2018-03-06T11:39:59.143Z,14.90
2018-03-06T11:42:26.025Z,14.90
2018-03-06T11:44:53.703Z,14.80
2018-03-06T11:47:20.619Z,14.80
2018-03-06T11:49:47.499Z,14.70
2018-03-06T11:52:14.431Z,14.70
2018-03-06T11:54:41.300Z,14.90
2018-03-06T11:57:08.162Z,14.50
2018-03-06T11:59:35.199Z,15.00
2018-03-06T12:02:02.081Z,14.70
2018-03-06T12:04:29.015Z,14.60
2018-03-06T12:06:55.950Z,14.50
2018-03-06T12:09:22.802Z,14.50
2018-03-06T12:11:49.723Z,14.70
2018-03-06T12:14:16.584Z,14.90
2018-03-06T12:16:43.519Z,14.90
2018-03-06T12:19:10.455Z,14.80
2018-03-06T12:21:37.327Z,14.90
2018-03-06T12:24:06.195Z,14.60
2018-03-06T12:26:33.196Z,14.80
2018-03-06T12:29:02.472Z,14.80
2018-03-06T12:31:40.708Z,14.80
2018-03-06T12:34:07.593Z,15.10
2018-03-06T12:36:46.438Z,15.20
2018-03-06T12:39:28.115Z,15.30
2018-03-06T12:41:58.273Z,15.10
2018-03-06T12:44:25.263Z,15.20
2018-03-06T12:46:52.122Z,15.10
2018-03-06T12:49:19.063Z,15.10
2018-03-06T12:51:46.029Z,15.20
2018-03-06T12:54:13.003Z,14.70
2018-03-06T12:56:39.941Z,13.50
2018-03-06T12:59:06.880Z,13.90
2018-03-06T13:01:33.827Z,14.10
2018-03-06T13:04:02.100Z,14.40
2018-03-06T13:06:29.843Z,14.30
2018-03-06T13:09:09.477Z,14.50
2018-03-06T13:11:49.358Z,14.60
2018-03-06T13:14:29.876Z,14.80
2018-03-06T13:17:07.186Z,14.80
2018-03-06T13:22:13.486Z,14.90
2018-03-06T13:24:50.239Z,14.70
2018-03-06T13:27:21.290Z,14.20
2018-03-06T13:29:49.311Z,14.50
2018-03-06T13:32:17.707Z,14.50
2018-03-06T13:34:44.683Z,14.70
2018-03-06T13:37:13.169Z,14.50
2018-03-06T13:39:40.208Z,14.60
2018-03-06T13:42:07.156Z,14.60
2018-03-06T13:44:34.791Z,14.80
2018-03-06T13:47:01.731Z,14.80
2018-03-06T13:49:28.653Z,14.70
2018-03-06T13:51:55.584Z,14.80
2018-03-06T13:54:22.510Z,14.70
2018-03-06T13:56:49.438Z,14.90
2018-03-06T13:59:16.295Z,14.90
2018-03-06T14:01:43.245Z,14.80
2018-03-06T14:04:10.112Z,15.00
2018-03-06T14:06:37.007Z,15.00
2018-03-06T14:09:04.707Z,14.90
2018-03-06T14:11:31.576Z,14.90
2018-03-06T14:13:58.589Z,14.70
2018-03-06T14:16:25.520Z,14.90
2018-03-06T14:18:53.165Z,14.80
2018-03-06T14:21:20.103Z,14.80
2018-03-06T14:23:46.956Z,14.80
2018-03-06T14:26:13.879Z,14.80
2018-03-06T14:28:40.812Z,14.80
2018-03-06T14:31:07.760Z,14.80
2018-03-06T14:33:34.636Z,14.80
2018-03-06T14:36:01.585Z,14.80
2018-03-06T14:38:28.456Z,14.70
2018-03-06T14:40:55.384Z,14.80
2018-03-06T14:43:22.359Z,14.30
2018-03-06T14:45:49.231Z,14.50
2018-03-06T14:48:16.172Z,14.60
2018-03-06T14:50:43.101Z,14.70
2018-03-06T14:53:09.975Z,14.50
2018-03-06T14:55:36.854Z,14.50
2018-03-06T14:58:03.795Z,14.70
2018-03-06T15:00:30.737Z,14.70
2018-03-06T15:02:57.715Z,14.70
2018-03-06T15:05:24.668Z,14.70
2018-03-06T15:07:51.587Z,14.70
2018-03-06T15:10:19.212Z,14.60
2018-03-06T15:12:46.147Z,14.60
2018-03-06T15:15:13.015Z,14.50
2018-03-06T15:17:39.952Z,14.40
2018-03-06T15:20:07.300Z,14.30
2018-03-06T15:22:34.244Z,14.10
2018-03-06T15:25:01.167Z,14.10
2018-03-06T15:27:28.115Z,14.10
2018-03-06T15:29:54.983Z,13.90
2018-03-06T15:32:21.914Z,13.80
2018-03-06T15:34:48.872Z,13.70
2018-03-06T15:37:15.734Z,13.70
2018-03-06T15:39:42.651Z,13.60
2018-03-06T15:42:09.580Z,13.50
2018-03-06T15:44:36.512Z,13.50
2018-03-06T15:47:04.111Z,13.50
2018-03-06T15:49:30.976Z,13.50
2018-03-06T15:51:57.930Z,13.40
2018-03-06T15:57:07.068Z,13.10
2018-03-06T15:59:34.006Z,13.10
2018-03-06T16:02:01.028Z,13.10
2018-03-06T16:04:31.198Z,13.00
2018-03-06T16:06:58.181Z,13.00
2018-03-06T16:09:35.604Z,12.90
2018-03-06T16:12:16.357Z,12.80
2018-03-06T16:14:51.424Z,12.70
2018-03-06T16:17:24.555Z,12.50
2018-03-06T16:19:57.538Z,12.40
2018-03-06T16:22:28.837Z,12.40
2018-03-06T16:24:55.763Z,12.40
2018-03-06T16:27:36.592Z,12.30
2018-03-06T16:30:04.401Z,12.30
2018-03-06T16:32:39.907Z,12.20
2018-03-06T16:35:06.858Z,12.10
2018-03-06T16:37:33.807Z,12.00
2018-03-06T16:40:00.733Z,11.90
2018-03-06T16:42:27.666Z,11.90
2018-03-06T16:44:54.639Z,11.80
2018-03-06T16:47:21.600Z,11.70
2018-03-06T16:49:48.475Z,11.70
2018-03-06T16:52:15.332Z,11.50
2018-03-06T16:54:42.262Z,11.40
2018-03-06T16:57:09.134Z,11.30
2018-03-06T16:59:36.068Z,11.30
2018-03-06T17:02:02.936Z,11.20
2018-03-06T17:04:29.866Z,11.20
2018-03-06T17:06:56.725Z,11.10
2018-03-06T17:09:23.639Z,11.00
2018-03-06T17:11:50.571Z,10.90
2018-03-06T17:14:17.508Z,10.80
2018-03-06T17:16:44.508Z,10.80
2018-03-06T17:19:12.250Z,10.70
2018-03-06T17:21:39.370Z,10.60
2018-03-06T17:24:14.391Z,10.50
2018-03-06T17:26:47.262Z,10.30
2018-03-06T17:29:23.316Z,10.30
2018-03-06T17:31:56.693Z,10.10
2018-03-06T17:34:33.310Z,9.90
2018-03-06T17:37:06.176Z,9.80
2018-03-06T17:39:40.971Z,9.80
2018-03-06T17:42:13.946Z,9.80
2018-03-06T17:44:55.129Z,9.80
2018-03-06T17:47:35.462Z,9.80
2018-03-06T17:50:10.308Z,9.80
2018-03-06T17:52:56.720Z,9.70
2018-03-06T17:55:35.878Z,9.60
2018-03-06T18:01:05.277Z,9.60
2018-03-06T18:03:33.223Z,9.50
2018-03-06T18:06:00.829Z,9.40
2018-03-06T18:08:27.800Z,9.30
2018-03-06T18:10:56.679Z,9.30
2018-03-06T18:13:23.555Z,9.30
2018-03-06T18:15:50.492Z,9.20
2018-03-06T18:18:17.422Z,9.30
2018-03-06T18:20:44.379Z,9.30
2018-03-06T18:23:11.252Z,9.30
2018-03-06T18:25:39.114Z,9.10
2018-03-06T18:28:06.735Z,9.10
2018-03-06T18:30:33.616Z,9.10
2018-03-06T18:33:01.288Z,9.00
2018-03-06T18:35:28.972Z,9.00
2018-03-06T18:37:55.876Z,9.00
2018-03-06T18:40:22.802Z,9.00
2018-03-06T18:42:49.734Z,8.90
2018-03-06T18:45:16.599Z,8.90
2018-03-06T18:47:43.606Z,8.80
2018-03-06T18:50:22.423Z,8.70
2018-03-06T18:52:49.376Z,8.70
2018-03-06T18:55:16.259Z,8.50
2018-03-06T18:57:43.199Z,8.40
2018-03-06T19:00:29.764Z,8.20
2018-03-06T19:03:09.933Z,8.20
2018-03-06T19:05:49.055Z,8.00
2018-03-06T19:11:02.812Z,8.10
2018-03-06T19:13:29.792Z,8.20
2018-03-06T19:16:03.363Z,8.20
2018-03-06T19:18:30.289Z,8.30
2018-03-06T19:20:57.975Z,8.20
2018-03-06T19:23:24.845Z,8.20
2018-03-06T19:26:00.740Z,8.20
2018-03-06T19:28:41.559Z,8.30
2018-03-06T19:31:26.213Z,8.30
2018-03-06T19:34:08.826Z,8.30
2018-03-06T19:36:51.764Z,8.40
2018-03-06T19:39:33.498Z,8.40
2018-03-06T19:42:01.249Z,8.30
2018-03-06T19:44:28.124Z,8.40
2018-03-06T19:47:00.540Z,8.40
2018-03-06T19:49:35.958Z,8.30
2018-03-06T19:52:11.889Z,8.40
2018-03-06T19:54:38.776Z,8.30
2018-03-06T19:57:17.606Z,8.40
2018-03-06T19:59:44.499Z,8.30
2018-03-06T20:02:14.117Z,8.40
2018-03-06T20:04:41.744Z,8.40
2018-03-06T20:07:08.623Z,8.40
2018-03-06T20:09:35.628Z,8.50
2018-03-06T20:12:02.518Z,8.50
2018-03-06T20:14:36.295Z,8.60
2018-03-06T20:17:03.320Z,8.60
2018-03-06T20:19:36.088Z,8.60
2018-03-06T20:22:18.088Z,8.60
2018-03-06T20:25:02.865Z,8.70
2018-03-06T20:27:43.880Z,8.70
2018-03-06T20:30:29.168Z,8.70
2018-03-06T20:33:12.637Z,8.70
2018-03-06T20:35:40.436Z,8.80
2018-03-06T20:38:07.484Z,8.70
2018-03-06T20:40:34.443Z,8.80
2018-03-06T20:43:01.418Z,8.80
2018-03-06T20:45:43.918Z,8.90
2018-03-06T20:48:11.616Z,8.70
2018-03-06T20:50:38.505Z,8.70
2018-03-06T20:53:11.447Z,8.80
2018-03-06T20:55:38.433Z,8.80
2018-03-06T20:58:05.393Z,8.80
2018-03-06T21:00:32.273Z,8.80
2018-03-06T21:02:59.247Z,8.70
2018-03-06T21:05:31.686Z,8.90
2018-03-06T21:07:59.209Z,8.90
2018-03-06T21:10:41.059Z,8.80
2018-03-06T21:13:22.998Z,8.90
2018-03-06T21:15:50.701Z,8.80
2018-03-06T21:18:18.392Z,8.80
2018-03-06T21:20:45.375Z,8.80
2018-03-06T21:23:25.691Z,8.60
2018-03-06T21:26:06.418Z,8.70
2018-03-06T21:28:48.448Z,8.70
2018-03-06T21:31:30.359Z,8.80
2018-03-06T21:33:58.841Z,8.70
2018-03-06T21:36:25.769Z,8.80
2018-03-06T21:38:53.445Z,8.80
2018-03-06T21:41:21.123Z,8.90
2018-03-06T21:43:48.085Z,8.90
2018-03-06T21:46:15.070Z,8.90
2018-03-06T21:48:41.985Z,8.90
2018-03-06T21:51:08.931Z,9.00
2018-03-06T21:53:35.812Z,8.90
2018-03-06T21:56:02.767Z,8.90
2018-03-06T21:58:29.639Z,9.00
2018-03-06T22:00:56.513Z,9.00
2018-03-06T22:03:23.539Z,9.00
2018-03-06T22:05:50.423Z,8.90
2018-03-06T22:08:17.304Z,8.80
2018-03-06T22:10:44.987Z,8.90
2018-03-06T22:13:11.916Z,8.90
2018-03-06T22:15:39.599Z,9.00
2018-03-06T22:18:06.562Z,9.00
2018-03-06T22:20:33.454Z,8.90
2018-03-06T22:23:00.337Z,9.00
2018-03-06T22:25:27.297Z,9.00
2018-03-06T22:27:54.180Z,9.00
2018-03-06T22:30:21.055Z,9.00
2018-03-06T22:32:48.735Z,8.90
2018-03-06T22:35:15.668Z,8.90
2018-03-06T22:37:42.604Z,8.80
2018-03-06T22:40:09.476Z,9.00
2018-03-06T22:42:36.415Z,9.00
2018-03-06T22:45:03.395Z,8.90
2018-03-06T22:47:30.255Z,8.90
2018-03-06T22:49:57.216Z,8.90
2018-03-06T22:52:24.141Z,8.90
2018-03-06T22:54:51.098Z,9.00
2018-03-06T22:57:19.114Z,9.00
2018-03-06T22:59:46.004Z,9.10
2018-03-06T23:02:13.047Z,9.00
2018-03-06T23:04:39.917Z,9.10
2018-03-06T23:07:06.856Z,9.10
2018-03-06T23:09:33.770Z,9.20
2018-03-06T23:12:00.655Z,9.20
2018-03-06T23:14:27.596Z,9.20
2018-03-06T23:16:54.476Z,9.10
2018-03-06T23:19:21.336Z,9.10
2018-03-06T23:21:48.283Z,9.20
2018-03-06T23:24:15.146Z,9.20
2018-03-06T23:26:42.063Z,9.20
2018-03-06T23:29:09.008Z,9.20
2018-03-06T23:31:35.887Z,9.10
2018-03-06T23:34:08.650Z,9.10
2018-03-06T23:36:35.516Z,9.00
2018-03-06T23:39:02.444Z,9.00
2018-03-06T23:41:29.384Z,9.00
2018-03-06T23:43:56.268Z,8.80
2018-03-06T23:46:23.134Z,8.90
2018-03-06T23:48:52.055Z,8.70
2018-03-06T23:51:20.748Z,8.60
2018-03-06T23:53:49.249Z,8.60
2018-03-06T23:56:16.340Z,8.80
2018-03-06T23:58:44.656Z,8.70
